Maribel — LAGU6 — position and weather

sailwx.info

Track history (hours):
 
Tides and Currents Weather Stations Pressure Air Temp Water Temp Dewpoint Dewpoint Depression Visibility Wind Speed Wind Dir Waves Ship Positions

Maribel

Last reported at 2014-Sep-17 18:10 UTC. Time now 2014-Sep-18 17:49 UTC.
Position N 56°56' E 019°27'.

Length 227 m; draft 8.9 m.

Type: Ship. MMSI: 257872000.

Date/timePositionNaut miles runAvg speedWind from/ knotsBaromVisibWave heightAir tempDewpointWater temp
2014-Sep-17 18:10N 56°56' E 019°27'912.8
2014-Sep-17 17:28N 56°48' E 019°20'1312.8
2014-Sep-17 16:28N 56°37' E 019°08'7712.2
2014-Sep-17 10:09N 55°52' E 017°16'812.5
2014-Sep-17 09:32N 55°50' E 017°02'1212.5
2014-Sep-17 08:33N 55°47' E 016°41'1212.4
2014-Sep-17 07:33N 55°45' E 016°20'1312.7
2014-Sep-17 06:33N 55°41' E 015°58'1312.7
2014-Sep-17 05:33N 55°38' E 015°36'1312.7
2014-Sep-17 04:32N 55°35' E 015°14'1212.6
2014-Sep-17 03:33N 55°29' E 014°55'1212.3
2014-Sep-17 02:33N 55°23' E 014°36'1312.5
2014-Sep-17 01:34N 55°13' E 014°22'1212.3
2014-Sep-17 00:33N 55°10' E 014°01'1212.0
2014-Sep-16 23:33N 55°11' E 013°40'1212.1
2014-Sep-16 22:33N 55°12' E 013°19'1212.0
2014-Sep-16 21:33N 55°13' E 012°58'1211.6
2014-Sep-16 20:33N 55°18' E 012°39'1211.7
2014-Sep-16 19:33N 55°29' E 012°41'9 8.7
2014-Sep-16 18:33N 55°38' E 012°42'1413.5
2014-Sep-16 17:33N 55°52' E 012°41'1313.3
2014-Sep-16 16:33N 56°05' E 012°36'1111.5
2014-Sep-16 15:33N 56°11' E 012°20'1313.0
2014-Sep-16 14:33N 56°20' E 012°03'1413.8
2014-Sep-16 13:33N 56°34' E 011°57'1313.2
2014-Sep-16 12:33N 56°47' E 011°50'1413.6
2014-Sep-16 11:33N 56°59' E 011°40'1312.9
2014-Sep-16 10:32N 57°11' E 011°33'1212.3
2014-Sep-16 09:33N 57°23' E 011°27'1211.8
2014-Sep-16 08:33N 57°32' E 011°14'1212.4
2014-Sep-16 07:33N 57°41' E 010°57'1211.9
2014-Sep-16 06:33N 57°48' E 010°39'1210.9
2014-Sep-16 05:29N 57°48' E 010°17'3612.0
2014-Sep-16 02:30N 57°46' E 009°10'23512.1
2014-Sep-15 07:03N 54°27' E 005°24'1012.6
2014-Sep-15 06:18N 54°19' E 005°14'1012.4
2014-Sep-15 05:31N 54°12' E 005°02'1212.4
2014-Sep-15 04:33N 54°04' E 004°49'16612.8
2014-Sep-14 15:33N 51°40' E 002°30'1413.1
2014-Sep-14 14:29N 51°29' E 002°17'1112.3
2014-Sep-14 13:33N 51°19' E 002°08'1110.7
2014-Sep-14 12:33N 51°11' E 001°57'1010.0
2014-Sep-14 11:34N 51°05' E 001°44'9 9.4
2014-Sep-14 10:33N 50°59' E 001°32'3210.1
2014-Sep-14 07:21N 50°32' E 001°03'1311.2
2014-Sep-14 06:14N 50°28' E 000°45'1211.4
2014-Sep-14 05:13N 50°24' E 000°27'24210.2
2014-Sep-13 05:25N 50°28' W 005°53'1012.0
2014-Sep-13 04:33N 50°36' W 005°42'1313.0
2014-Sep-13 03:33N 50°45' W 005°29'1413.6
2014-Sep-13 02:32N 50°56' W 005°15'7314.4
2014-Sep-12 21:26N 51°21' W 003°25'1012.0
2014-Sep-12 20:33N 51°22' W 003°08'1111.0
2014-Sep-12 19:33N 51°28' W 002°54'7 6.7
2014-Sep-12 18:33N 51°30' W 002°43'0 0.1
2014-Sep-12 17:31N 51°30' W 002°43'0 0.0
2014-Sep-12 16:33N 51°30' W 002°43'0 0.0
2014-Sep-12 15:33N 51°30' W 002°43'0 0.0
2014-Sep-12 14:32N 51°30' W 002°43'0 0.0
2014-Sep-12 13:32N 51°30' W 002°43'0 0.0
2014-Sep-12 12:31N 51°30' W 002°43'0 0.0
2014-Sep-12 11:31N 51°30' W 002°43'0 0.0
2014-Sep-12 10:31N 51°30' W 002°43'0 0.0
2014-Sep-12 09:33N 51°30' W 002°43'0 0.0
2014-Sep-12 08:33N 51°30' W 002°43'0 0.0
2014-Sep-12 07:32N 51°30' W 002°43'0 0.0
2014-Sep-12 06:32N 51°30' W 002°43'0 0.0
2014-Sep-12 05:31N 51°30' W 002°43'0 0.0
2014-Sep-12 04:31N 51°30' W 002°43'0 0.0
2014-Sep-12 03:34N 51°30' W 002°43'0 0.0
2014-Sep-12 02:33N 51°30' W 002°43'0 0.0
2014-Sep-12 01:33N 51°30' W 002°43'0 0.0
2014-Sep-12 00:32N 51°30' W 002°43'0 0.0
2014-Sep-11 23:32N 51°30' W 002°43'0 0.0
2014-Sep-11 22:31N 51°30' W 002°43'0 0.0
2014-Sep-11 21:31N 51°30' W 002°43'0 0.0
2014-Sep-11 20:34N 51°30' W 002°43'0 0.0
2014-Sep-11 19:33N 51°30' W 002°43'0 0.0
2014-Sep-11 18:33N 51°30' W 002°43'0 0.0
2014-Sep-11 17:32N 51°30' W 002°43'0 0.0
2014-Sep-11 16:32N 51°30' W 002°43'0 0.0
2014-Sep-11 15:31N 51°30' W 002°43'0 0.0
2014-Sep-11 14:31N 51°30' W 002°43'0 0.0
2014-Sep-11 13:34N 51°30' W 002°43'0 0.0
2014-Sep-11 12:27N 51°30' W 002°43'0 0.0
2014-Sep-11 11:33N 51°30' W 002°43'0 0.0
2014-Sep-11 10:32N 51°30' W 002°43'0 0.0
2014-Sep-11 09:32N 51°30' W 002°43'0 0.0
2014-Sep-11 08:31N 51°30' W 002°43'0 0.0
2014-Sep-11 07:31N 51°30' W 002°43'0 0.0
2014-Sep-11 06:33N 51°30' W 002°43'0 0.0
2014-Sep-11 05:33N 51°30' W 002°43'0 0.0
2014-Sep-11 04:33N 51°30' W 002°43'0 0.0
2014-Sep-11 03:32N 51°30' W 002°43'0 0.0
2014-Sep-11 02:32N 51°30' W 002°43'0 0.0
2014-Sep-11 01:31N 51°30' W 002°43'0 0.0
2014-Sep-11 00:31N 51°30' W 002°43'0 0.0
2014-Sep-10 23:33N 51°30' W 002°43'0 0.0
2014-Sep-10 22:33N 51°30' W 002°43'0 0.0
2014-Sep-10 21:33N 51°30' W 002°43'0 0.0
2014-Sep-10 20:32N 51°30' W 002°43'0 0.2
2014-Sep-10 19:33N 51°30' W 002°44'3 2.9
2014-Sep-10 18:33N 51°29' W 002°48'1110.8
2014-Sep-10 17:33N 51°24' W 003°03'1313.2
2014-Sep-10 16:33N 51°21' W 003°24'65 7.9
2014-Sep-10 08:21N 51°04' W 005°03'1113.1
2014-Sep-10 07:32N 50°55' W 005°14'1414.2
2014-Sep-10 06:33N 50°45' W 005°29'1714.7
2014-Sep-10 05:23N 50°32' W 005°46'5814.7
2014-Sep-10 01:24N 49°34' W 005°59'  
Track history (hours):
 
Tides and Currents Weather Stations Pressure Air Temp Water Temp Dewpoint Dewpoint Depression Visibility Wind Speed Wind Dir Waves Ship Positions

Maribel

Last reported at 2014-Sep-17 18:10 UTC. Time now 2014-Sep-18 17:49 UTC.
Position N 56°56' E 019°27'.

Length 227 m; draft 8.9 m.

Type: Ship. MMSI: 257872000.

Date/timePositionNaut miles runAvg speedWind from/ knotsBaromVisibWave heightAir tempDewpointWater temp
2014-Sep-17 18:10N 56°56' E 019°27'912.8
2014-Sep-17 17:28N 56°48' E 019°20'1312.8
2014-Sep-17 16:28N 56°37' E 019°08'7712.2
2014-Sep-17 10:09N 55°52' E 017°16'812.5
2014-Sep-17 09:32N 55°50' E 017°02'1212.5
2014-Sep-17 08:33N 55°47' E 016°41'1212.4
2014-Sep-17 07:33N 55°45' E 016°20'1312.7
2014-Sep-17 06:33N 55°41' E 015°58'1312.7
2014-Sep-17 05:33N 55°38' E 015°36'1312.7
2014-Sep-17 04:32N 55°35' E 015°14'1212.6
2014-Sep-17 03:33N 55°29' E 014°55'1212.3
2014-Sep-17 02:33N 55°23' E 014°36'1312.5
2014-Sep-17 01:34N 55°13' E 014°22'1212.3
2014-Sep-17 00:33N 55°10' E 014°01'1212.0
2014-Sep-16 23:33N 55°11' E 013°40'1212.1
2014-Sep-16 22:33N 55°12' E 013°19'1212.0
2014-Sep-16 21:33N 55°13' E 012°58'1211.6
2014-Sep-16 20:33N 55°18' E 012°39'1211.7
2014-Sep-16 19:33N 55°29' E 012°41'9 8.7
2014-Sep-16 18:33N 55°38' E 012°42'1413.5
2014-Sep-16 17:33N 55°52' E 012°41'1313.3
2014-Sep-16 16:33N 56°05' E 012°36'1111.5
2014-Sep-16 15:33N 56°11' E 012°20'1313.0
2014-Sep-16 14:33N 56°20' E 012°03'1413.8
2014-Sep-16 13:33N 56°34' E 011°57'1313.2
2014-Sep-16 12:33N 56°47' E 011°50'1413.6
2014-Sep-16 11:33N 56°59' E 011°40'1312.9
2014-Sep-16 10:32N 57°11' E 011°33'1212.3
2014-Sep-16 09:33N 57°23' E 011°27'1211.8
2014-Sep-16 08:33N 57°32' E 011°14'1212.4
2014-Sep-16 07:33N 57°41' E 010°57'1211.9
2014-Sep-16 06:33N 57°48' E 010°39'1210.9
2014-Sep-16 05:29N 57°48' E 010°17'3612.0
2014-Sep-16 02:30N 57°46' E 009°10'23512.1
2014-Sep-15 07:03N 54°27' E 005°24'1012.6
2014-Sep-15 06:18N 54°19' E 005°14'1012.4
2014-Sep-15 05:31N 54°12' E 005°02'1212.4
2014-Sep-15 04:33N 54°04' E 004°49'16612.8
2014-Sep-14 15:33N 51°40' E 002°30'1413.1
2014-Sep-14 14:29N 51°29' E 002°17'1112.3
2014-Sep-14 13:33N 51°19' E 002°08'1110.7
2014-Sep-14 12:33N 51°11' E 001°57'1010.0
2014-Sep-14 11:34N 51°05' E 001°44'9 9.4
2014-Sep-14 10:33N 50°59' E 001°32'3210.1
2014-Sep-14 07:21N 50°32' E 001°03'1311.2
2014-Sep-14 06:14N 50°28' E 000°45'1211.4
2014-Sep-14 05:13N 50°24' E 000°27'24210.2
2014-Sep-13 05:25N 50°28' W 005°53'1012.0
2014-Sep-13 04:33N 50°36' W 005°42'1313.0
2014-Sep-13 03:33N 50°45' W 005°29'1413.6
2014-Sep-13 02:32N 50°56' W 005°15'7314.4
2014-Sep-12 21:26N 51°21' W 003°25'1012.0
2014-Sep-12 20:33N 51°22' W 003°08'1111.0
2014-Sep-12 19:33N 51°28' W 002°54'7 6.7
2014-Sep-12 18:33N 51°30' W 002°43'0 0.1
2014-Sep-12 17:31N 51°30' W 002°43'0 0.0
2014-Sep-12 16:33N 51°30' W 002°43'0 0.0
2014-Sep-12 15:33N 51°30' W 002°43'0 0.0
2014-Sep-12 14:32N 51°30' W 002°43'0 0.0
2014-Sep-12 13:32N 51°30' W 002°43'0 0.0
2014-Sep-12 12:31N 51°30' W 002°43'0 0.0
2014-Sep-12 11:31N 51°30' W 002°43'0 0.0
2014-Sep-12 10:31N 51°30' W 002°43'0 0.0
2014-Sep-12 09:33N 51°30' W 002°43'0 0.0
2014-Sep-12 08:33N 51°30' W 002°43'0 0.0
2014-Sep-12 07:32N 51°30' W 002°43'0 0.0
2014-Sep-12 06:32N 51°30' W 002°43'0 0.0
2014-Sep-12 05:31N 51°30' W 002°43'0 0.0
2014-Sep-12 04:31N 51°30' W 002°43'0 0.0
2014-Sep-12 03:34N 51°30' W 002°43'0 0.0
2014-Sep-12 02:33N 51°30' W 002°43'0 0.0
2014-Sep-12 01:33N 51°30' W 002°43'0 0.0
2014-Sep-12 00:32N 51°30' W 002°43'0 0.0
2014-Sep-11 23:32N 51°30' W 002°43'0 0.0
2014-Sep-11 22:31N 51°30' W 002°43'0 0.0
2014-Sep-11 21:31N 51°30' W 002°43'0 0.0
2014-Sep-11 20:34N 51°30' W 002°43'0 0.0
2014-Sep-11 19:33N 51°30' W 002°43'0 0.0
2014-Sep-11 18:33N 51°30' W 002°43'0 0.0
2014-Sep-11 17:32N 51°30' W 002°43'0 0.0
2014-Sep-11 16:32N 51°30' W 002°43'0 0.0
2014-Sep-11 15:31N 51°30' W 002°43'0 0.0
2014-Sep-11 14:31N 51°30' W 002°43'0 0.0
2014-Sep-11 13:34N 51°30' W 002°43'0 0.0
2014-Sep-11 12:27N 51°30' W 002°43'0 0.0
2014-Sep-11 11:33N 51°30' W 002°43'0 0.0
2014-Sep-11 10:32N 51°30' W 002°43'0 0.0
2014-Sep-11 09:32N 51°30' W 002°43'0 0.0
2014-Sep-11 08:31N 51°30' W 002°43'0 0.0
2014-Sep-11 07:31N 51°30' W 002°43'0 0.0
2014-Sep-11 06:33N 51°30' W 002°43'0 0.0
2014-Sep-11 05:33N 51°30' W 002°43'0 0.0
2014-Sep-11 04:33N 51°30' W 002°43'0 0.0
2014-Sep-11 03:32N 51°30' W 002°43'0 0.0
2014-Sep-11 02:32N 51°30' W 002°43'0 0.0
2014-Sep-11 01:31N 51°30' W 002°43'0 0.0
2014-Sep-11 00:31N 51°30' W 002°43'0 0.0
2014-Sep-10 23:33N 51°30' W 002°43'0 0.0
2014-Sep-10 22:33N 51°30' W 002°43'0 0.0
2014-Sep-10 21:33N 51°30' W 002°43'0 0.0
2014-Sep-10 20:32N 51°30' W 002°43'0 0.2
2014-Sep-10 19:33N 51°30' W 002°44'3 2.9
2014-Sep-10 18:33N 51°29' W 002°48'1110.8
2014-Sep-10 17:33N 51°24' W 003°03'1313.2
2014-Sep-10 16:33N 51°21' W 003°24'65 7.9
2014-Sep-10 08:21N 51°04' W 005°03'1113.1
2014-Sep-10 07:32N 50°55' W 005°14'1414.2
2014-Sep-10 06:33N 50°45' W 005°29'1714.7
2014-Sep-10 05:23N 50°32' W 005°46'5814.7
2014-Sep-10 01:24N 49°34' W 005°59'  

Dump ship's entire track history